Terminal Aerodrome Forecast
Issued by NWS Boston, MA

Home | Current Version | Previous Version | Text Only | Print | Product List | Glossary On
Versions: 1 2 3 4 5 6 7 8 9 10 11 12 13 14 15 16 17 18 19 20 21 22 23 24 25 26 27 28 29 30 31 32 33 34 35 36
000
FTUS41 KBOX 300822 AAA
TAFORH
TAF AMD
KORH 300822Z 3008/3106 24007KT P6SM SCT150
     FM301400 22012KT P6SM SCT200
     FM301700 21014G26KT P6SM SCT200
     FM310000 21013G23KT P6SM BKN080
     FM310300 21012KT P6SM BKN060=

USA.gov is the U.S. government's official web portal to all federal, state and local government web resources and services.